Las horas y fechas están en horario UTC.
Sumar 1 hora en el horario de invierno y 2 horas en el de verano.

Informes METAR cercanos

 

LEZL - Sevilla (civ/Mil, Spain
Distance from station: NNE 24km
Actualización: 20/01/2022 14:30
Despejado
Despejado
 Viento del E
Viento: E 9 km/h
Temperatura: 15°C
Rocío: 3°C
Humedad: 45%
Barómetro: 1024 hPa
Resumen: Despejado
Visibility: greater than 10 km
2022/01/20 14:30 LEZL 201430Z 08005KT 030V130 CAVOK 15/03 Q1024 NOSIG
LEMO - Moron (sp-Usafb), Spain
Distance from station: E 38km
Actualización: 20/01/2022 14:30
Despejado
Despejado
 Viento del NE
Viento: NE 15 km/h
Temperatura: 15°C
Rocío: 5°C
Humedad: 51%
Barómetro: 1024 hPa
Resumen: Despejado
Visibility: greater than 10 km
2022/01/20 14:30 LEMO 201430Z 05008KT 010V090 CAVOK 15/05 Q1024 NOSIG
LEJR - Jerez (civ/Mil), Spain
Distance from station: S 53km
Actualización: 20/01/2022 14:30
Despejado
Despejado
 Viento del N
Viento: N 15 km/h
Temperatura: 16°C
Rocío: 6°C
Humedad: 52%
Barómetro: 1024 hPa
Resumen: Despejado
Visibility: greater than 10 km
2022/01/20 14:30 LEJR 201430Z 01008KT 340V050 CAVOK 16/06 Q1024
 
LERT - Rota Naval Stati, Spain
Distance from station: SSO 71km
Actualización: 20/01/2022 14:30
Despejado
Despejado
 Viento del N
Viento: N 19 km/h
Temperatura: 15°C
Rocío: 6°C
Humedad: 55%
Barómetro: 1024 hPa
Resumen: Despejado
Visibility: greater than 10 km
2022/01/20 14:30 LERT 201430Z 01010KT 330V050 CAVOK 15/06 Q1024 NOSIG
LEBA - Cordoba Airport, Spain
Distance from station: ENE 128km
Actualización: 20/01/2022 14:30
Despejado
Despejado
 Viento del ENE
Viento: ENE 6 km/h
Temperatura: 14°C
Rocío: 0°C
Humedad: 39%
Barómetro: 1024 hPa
Resumen: Despejado
Visibility: greater than 10 km
2022/01/20 14:30 LEBA 201430Z 06003KT 010V120 CAVOK 14/00 Q1024
LXGB - Gibraltar (civ/M, Gibraltar
Distance from station: SSE 137km
Actualización: 20/01/2022 14:20
Muy nuboso
Muy nuboso
 Viento del E
Viento: E 24 km/h
Temperatura: 15°C
Rocío: 8°C
Humedad: 63%
Barómetro: 1024 hPa
Clouds: Muy nuboso
Visibility: 10 km
Cloud details: Parcialmente nuboso 823 m
Muy nuboso 1219 m
2022/01/20 14:20 LXGB 201420Z 08013KT 9999 SCT027 BKN040 15/08 Q1024 NOSIG RMK BLU BLU
 
LEMG - Malaga (civ/Mil), Spain
Distance from station: ESE 150km
Actualización: 20/01/2022 14:30
Few Clouds
Few Clouds
 Viento del ESE
Viento: ESE 9 km/h
Temperatura: 15°C
Rocío: 6°C
Humedad: 55%
Barómetro: 1024 hPa
Clouds: Few Clouds
Visibility: 10 km
Cloud details: Few Clouds 1372 m
2022/01/20 14:30 LEMG 201430Z 12005KT 080V170 9999 FEW045 15/06 Q1024 NOSIG
GMTT - Tangier/Boukhalf, Morocco
Distance from station: S 169km
Actualización: 20/01/2022 14:30
Despejado
Despejado
 Viento del ENE
Viento: ENE 26 km/h
Temperatura: 18°C
Rocío: 7°C
Humedad: 49%
Barómetro: 1021 hPa
Resumen: Despejado
Visibility: greater than 10 km
2022/01/20 14:30 GMTT 201430Z 06014KT CAVOK 18/07 Q1021 NOSIG
LPFR - Faro, Portugal
Distance from station: O 172km
Actualización: 20/01/2022 14:30
Despejado
Despejado
 Viento del E
Viento: E 22 km/h
Temperatura: 15°C
Rocío: 7°C
Humedad: 59%
Barómetro: 1024 hPa
Resumen: Despejado
Visibility: greater than 10 km
2022/01/20 14:30 LPFR 201430Z 10012KT CAVOK 15/07 Q1024
 
LPBJ - Beja (por/Ger-Af, Portugal
Distance from station: ONO 192km
Actualización: 20/01/2022 14:00
Despejado
Despejado
 Viento del ENE
Viento: ENE 15 km/h
Temperatura: 14°C
Rocío: 3°C
Humedad: 48%
Barómetro: 1025 hPa
Resumen: Despejado
Visibility: greater than 10 km
2022/01/20 14:00 LPBJ 201400Z 06008KT CAVOK 14/03 Q1025
LEBZ - Talavera Ab/Bada, Spain
Distance from station: NNO 194km
Actualización: 20/01/2022 14:30
Despejado
Despejado
 Viento del E
Viento: E 11 km/h
Temperatura: 15°C
Rocío: 0°C
Humedad: 36%
Barómetro: 1025 hPa
Resumen: Despejado
Visibility: greater than 10 km
2022/01/20 14:30 LEBZ 201430Z 09006KT 060V140 CAVOK 15/M00 Q1025
LEMD - Madrid/Barajas, Spain
Distance from station: NE 415km
Actualización: 20/01/2022 14:30
Few Clouds
Few Clouds
 Viento del ENE
Viento: ENE 9 km/h
Temperatura: 13°C
Rocío: -1°C
Humedad: 38%
Barómetro: 1025 hPa
Clouds: Few Clouds
Visibility: 10 km
Cloud details: Few Clouds 1524 m
2022/01/20 14:30 LEMD 201430Z 06005KT 360V150 9999 FEW050 13/M01 Q1025 NOSIG